Llanerch, Pennsylvania
Current Conditions -  °F | °C
As of 1:54 AM on Saturday 20 Dec 2014 (Local Time) from KPHL Reporting Station
Overcast Overcast  
Wind Chill: 34°   Ceiling: 3500
Heat Index: 34°   Visibility: 10mi
Dew Point: 21°   Wind: 3mph
Humidity: 59%   Direction: 290°WNW
Pressure: 30.22"   Gusts: NA
Location:  39.9771°N, 75.3116°W
Report Text: KPHL 200654Z 29003KT 10SM OVC035 01/M06 A3022 RMK AO2 SLP232 T00111061
Loading
Personal Weather Stations






























Interactive Weather Map New forecast layout! Learn more

10-Day Weather Forecast

Advertisements
Track Severe Weather on mobile